ETSI

Ingolstadt Manching Airport

Manching, Germany
METAR ETSI 211920Z AUTO 21003KT //// // ////// M02/M03 Q1018 ///
Observed Flight Rules
Jan-21 @ 19:20 UTC (an hour ago)
Wind
210° at 3 knots
Temperatures Readings
Current -2°C / 28°F
Dewpoint -3°C / 27°F
Humidity 93%
Altimeter 30.06" Hg
Pressure 1018 hPa
Elevation 370
METAR ETSI 211920Z AUTO 21003KT //// // ////// M02/M03 Q1018 ///
Observed Flight Rules
Jan-21 @ 19:20 UTC
(an hour ago)
Wind
210° at 3 knots
Temperature Dewpoint
-2°C / 28°F -3°C / 27°F
Humidity Altimeter Pressure
93% 30.06" Hg 1018 hPa